sensor_id;sensor_type;location;lat;lon;timestamp;P1;durP1;ratioP1;P2;durP2;ratioP2
1509;SDS011;746;48.688;9.428;2022-12-18T00:01:14;90.63;;;38.20;;
1509;SDS011;746;48.688;9.428;2022-12-18T00:03:36;93.07;;;40.13;;
1509;SDS011;746;48.688;9.428;2022-12-18T00:05:57;86.53;;;40.30;;
1509;SDS011;746;48.688;9.428;2022-12-18T00:08:19;86.23;;;40.80;;
1509;SDS011;746;48.688;9.428;2022-12-18T00:10:40;90.20;;;40.57;;
1509;SDS011;746;48.688;9.428;2022-12-18T00:13:01;82.53;;;40.80;;
1509;SDS011;746;48.688;9.428;2022-12-18T00:15:30;90.83;;;41.23;;
1509;SDS011;746;48.688;9.428;2022-12-18T00:17:51;93.50;;;40.50;;
1509;SDS011;746;48.688;9.428;2022-12-18T00:20:12;85.17;;;41.33;;
1509;SDS011;746;48.688;9.428;2022-12-18T00:22:33;85.97;;;40.43;;
1509;SDS011;746;48.688;9.428;2022-12-18T00:24:54;83.23;;;39.03;;
1509;SDS011;746;48.688;9.428;2022-12-18T00:27:16;84.47;;;38.63;;
1509;SDS011;746;48.688;9.428;2022-12-18T00:29:37;81.03;;;37.50;;
1509;SDS011;746;48.688;9.428;2022-12-18T00:32:00;74.80;;;36.10;;
1509;SDS011;746;48.688;9.428;2022-12-18T00:34:21;74.60;;;36.17;;
1509;SDS011;746;48.688;9.428;2022-12-18T00:36:42;75.10;;;34.90;;
1509;SDS011;746;48.688;9.428;2022-12-18T00:39:04;74.20;;;37.03;;
1509;SDS011;746;48.688;9.428;2022-12-18T00:41:25;71.30;;;33.73;;
1509;SDS011;746;48.688;9.428;2022-12-18T00:44:05;70.17;;;33.53;;
1509;SDS011;746;48.688;9.428;2022-12-18T00:46:26;70.33;;;33.97;;
1509;SDS011;746;48.688;9.428;2022-12-18T00:48:49;67.40;;;33.47;;
1509;SDS011;746;48.688;9.428;2022-12-18T00:51:10;68.00;;;32.40;;
1509;SDS011;746;48.688;9.428;2022-12-18T00:53:32;72.00;;;34.87;;
1509;SDS011;746;48.688;9.428;2022-12-18T00:55:53;68.17;;;34.47;;
1509;SDS011;746;48.688;9.428;2022-12-18T00:58:15;79.53;;;36.57;;
1509;SDS011;746;48.688;9.428;2022-12-18T01:00:36;80.80;;;36.17;;
1509;SDS011;746;48.688;9.428;2022-12-18T01:02:58;79.20;;;35.40;;
1509;SDS011;746;48.688;9.428;2022-12-18T01:05:20;90.70;;;35.23;;
1509;SDS011;746;48.688;9.428;2022-12-18T01:07:42;81.37;;;35.10;;
1509;SDS011;746;48.688;9.428;2022-12-18T01:10:03;81.47;;;34.77;;
1509;SDS011;746;48.688;9.428;2022-12-18T01:12:25;71.07;;;33.90;;
1509;SDS011;746;48.688;9.428;2022-12-18T01:14:46;71.87;;;33.77;;
1509;SDS011;746;48.688;9.428;2022-12-18T01:17:07;78.87;;;34.30;;
1509;SDS011;746;48.688;9.428;2022-12-18T01:19:29;97.17;;;35.83;;
1509;SDS011;746;48.688;9.428;2022-12-18T01:21:51;85.80;;;35.97;;
1509;SDS011;746;48.688;9.428;2022-12-18T01:24:13;82.37;;;36.40;;
1509;SDS011;746;48.688;9.428;2022-12-18T01:26:34;99.60;;;36.13;;
1509;SDS011;746;48.688;9.428;2022-12-18T01:28:56;92.37;;;36.67;;
1509;SDS011;746;48.688;9.428;2022-12-18T01:31:19;78.00;;;33.13;;
1509;SDS011;746;48.688;9.428;2022-12-18T01:33:41;81.07;;;35.47;;
1509;SDS011;746;48.688;9.428;2022-12-18T01:36:02;100.00;;;36.57;;
1509;SDS011;746;48.688;9.428;2022-12-18T01:38:25;82.83;;;36.50;;
1509;SDS011;746;48.688;9.428;2022-12-18T01:40:46;78.10;;;34.97;;
1509;SDS011;746;48.688;9.428;2022-12-18T01:43:07;82.50;;;34.73;;
1509;SDS011;746;48.688;9.428;2022-12-18T01:45:30;76.20;;;34.13;;
1509;SDS011;746;48.688;9.428;2022-12-18T01:47:52;86.77;;;36.37;;
1509;SDS011;746;48.688;9.428;2022-12-18T01:50:14;78.87;;;36.50;;
1509;SDS011;746;48.688;9.428;2022-12-18T01:52:36;75.47;;;34.13;;
1509;SDS011;746;48.688;9.428;2022-12-18T01:55:03;84.80;;;36.53;;
1509;SDS011;746;48.688;9.428;2022-12-18T01:57:26;93.73;;;39.10;;
1509;SDS011;746;48.688;9.428;2022-12-18T01:59:48;76.83;;;35.43;;
1509;SDS011;746;48.688;9.428;2022-12-18T02:02:11;82.07;;;34.73;;
1509;SDS011;746;48.688;9.428;2022-12-18T02:04:32;88.63;;;36.10;;
1509;SDS011;746;48.688;9.428;2022-12-18T02:06:55;99.33;;;39.60;;
1509;SDS011;746;48.688;9.428;2022-12-18T02:09:20;98.70;;;34.73;;
1509;SDS011;746;48.688;9.428;2022-12-18T02:11:49;80.10;;;36.27;;
1509;SDS011;746;48.688;9.428;2022-12-18T02:14:16;86.17;;;38.27;;
1509;SDS011;746;48.688;9.428;2022-12-18T02:16:41;103.73;;;37.63;;
1509;SDS011;746;48.688;9.428;2022-12-18T02:19:05;96.03;;;36.23;;
1509;SDS011;746;48.688;9.428;2022-12-18T02:21:30;74.50;;;34.70;;
1509;SDS011;746;48.688;9.428;2022-12-18T02:23:56;73.27;;;34.03;;
1509;SDS011;746;48.688;9.428;2022-12-18T02:26:19;70.83;;;32.43;;
1509;SDS011;746;48.688;9.428;2022-12-18T02:28:44;77.93;;;34.33;;
1509;SDS011;746;48.688;9.428;2022-12-18T02:31:07;67.00;;;32.23;;
1509;SDS011;746;48.688;9.428;2022-12-18T02:33:30;73.43;;;33.07;;
1509;SDS011;746;48.688;9.428;2022-12-18T02:35:51;89.87;;;33.43;;
1509;SDS011;746;48.688;9.428;2022-12-18T02:38:14;69.93;;;32.50;;
1509;SDS011;746;48.688;9.428;2022-12-18T02:40:36;70.73;;;30.90;;
1509;SDS011;746;48.688;9.428;2022-12-18T02:43:03;83.33;;;31.33;;
1509;SDS011;746;48.688;9.428;2022-12-18T02:45:27;65.33;;;31.33;;
1509;SDS011;746;48.688;9.428;2022-12-18T02:47:49;74.57;;;33.17;;
1509;SDS011;746;48.688;9.428;2022-12-18T02:50:18;67.47;;;31.27;;
1509;SDS011;746;48.688;9.428;2022-12-18T02:52:42;69.37;;;30.90;;
1509;SDS011;746;48.688;9.428;2022-12-18T02:55:08;76.03;;;31.63;;
1509;SDS011;746;48.688;9.428;2022-12-18T02:57:34;74.83;;;33.43;;
1509;SDS011;746;48.688;9.428;2022-12-18T03:00:00;66.57;;;32.17;;
1509;SDS011;746;48.688;9.428;2022-12-18T03:02:24;64.30;;;32.33;;
1509;SDS011;746;48.688;9.428;2022-12-18T03:04:48;64.33;;;31.50;;
1509;SDS011;746;48.688;9.428;2022-12-18T03:07:13;61.90;;;30.57;;
1509;SDS011;746;48.688;9.428;2022-12-18T03:09:36;61.47;;;29.37;;
1509;SDS011;746;48.688;9.428;2022-12-18T03:12:02;61.67;;;30.90;;
1509;SDS011;746;48.688;9.428;2022-12-18T03:14:41;63.93;;;33.27;;
1509;SDS011;746;48.688;9.428;2022-12-18T03:17:05;67.13;;;31.87;;
1509;SDS011;746;48.688;9.428;2022-12-18T03:19:29;63.07;;;31.70;;
1509;SDS011;746;48.688;9.428;2022-12-18T03:21:53;69.57;;;32.50;;
1509;SDS011;746;48.688;9.428;2022-12-18T03:24:15;75.63;;;33.50;;
1509;SDS011;746;48.688;9.428;2022-12-18T03:26:36;68.70;;;32.93;;
1509;SDS011;746;48.688;9.428;2022-12-18T03:29:00;69.07;;;32.77;;
1509;SDS011;746;48.688;9.428;2022-12-18T03:31:24;69.47;;;31.67;;
1509;SDS011;746;48.688;9.428;2022-12-18T03:33:51;76.87;;;32.77;;
1509;SDS011;746;48.688;9.428;2022-12-18T03:36:12;106.43;;;34.40;;
1509;SDS011;746;48.688;9.428;2022-12-18T03:38:33;63.30;;;32.53;;
1509;SDS011;746;48.688;9.428;2022-12-18T03:40:56;63.30;;;31.07;;
1509;SDS011;746;48.688;9.428;2022-12-18T03:43:23;65.33;;;31.40;;
1509;SDS011;746;48.688;9.428;2022-12-18T03:45:49;66.90;;;32.10;;
1509;SDS011;746;48.688;9.428;2022-12-18T03:48:13;69.03;;;32.43;;
1509;SDS011;746;48.688;9.428;2022-12-18T03:50:40;64.47;;;30.80;;
1509;SDS011;746;48.688;9.428;2022-12-18T03:53:09;66.87;;;31.47;;
1509;SDS011;746;48.688;9.428;2022-12-18T03:55:35;66.17;;;30.80;;
1509;SDS011;746;48.688;9.428;2022-12-18T03:57:57;64.60;;;31.97;;
1509;SDS011;746;48.688;9.428;2022-12-18T04:00:19;71.93;;;34.03;;
1509;SDS011;746;48.688;9.428;2022-12-18T04:02:41;74.10;;;34.30;;
1509;SDS011;746;48.688;9.428;2022-12-18T04:05:04;66.83;;;30.67;;
1509;SDS011;746;48.688;9.428;2022-12-18T04:07:28;75.13;;;33.73;;
1509;SDS011;746;48.688;9.428;2022-12-18T04:09:50;80.17;;;33.87;;
1509;SDS011;746;48.688;9.428;2022-12-18T04:12:12;74.87;;;32.87;;
1509;SDS011;746;48.688;9.428;2022-12-18T04:14:34;77.30;;;32.87;;
1509;SDS011;746;48.688;9.428;2022-12-18T04:16:55;68.77;;;33.23;;
1509;SDS011;746;48.688;9.428;2022-12-18T04:19:17;72.60;;;33.17;;
1509;SDS011;746;48.688;9.428;2022-12-18T04:21:38;74.77;;;33.17;;
1509;SDS011;746;48.688;9.428;2022-12-18T04:24:01;63.70;;;31.30;;
1509;SDS011;746;48.688;9.428;2022-12-18T04:26:22;62.80;;;31.03;;
1509;SDS011;746;48.688;9.428;2022-12-18T04:28:43;61.50;;;29.17;;
1509;SDS011;746;48.688;9.428;2022-12-18T04:31:05;68.03;;;31.70;;
1509;SDS011;746;48.688;9.428;2022-12-18T04:33:26;59.50;;;29.83;;
1509;SDS011;746;48.688;9.428;2022-12-18T04:35:47;61.03;;;29.03;;
1509;SDS011;746;48.688;9.428;2022-12-18T04:38:08;64.13;;;30.13;;
1509;SDS011;746;48.688;9.428;2022-12-18T04:40:34;63.10;;;29.83;;
1509;SDS011;746;48.688;9.428;2022-12-18T04:42:55;65.53;;;30.23;;
1509;SDS011;746;48.688;9.428;2022-12-18T04:45:16;60.83;;;29.23;;
1509;SDS011;746;48.688;9.428;2022-12-18T04:47:38;59.53;;;29.03;;
1509;SDS011;746;48.688;9.428;2022-12-18T04:49:59;61.57;;;29.93;;
1509;SDS011;746;48.688;9.428;2022-12-18T04:52:20;63.73;;;29.90;;
1509;SDS011;746;48.688;9.428;2022-12-18T04:54:44;56.10;;;28.97;;
1509;SDS011;746;48.688;9.428;2022-12-18T04:57:07;59.63;;;27.73;;
1509;SDS011;746;48.688;9.428;2022-12-18T04:59:28;64.33;;;29.27;;
1509;SDS011;746;48.688;9.428;2022-12-18T05:01:49;63.30;;;29.53;;
1509;SDS011;746;48.688;9.428;2022-12-18T05:04:11;58.27;;;27.80;;
1509;SDS011;746;48.688;9.428;2022-12-18T05:06:32;54.43;;;27.47;;
1509;SDS011;746;48.688;9.428;2022-12-18T05:08:53;53.73;;;27.00;;
1509;SDS011;746;48.688;9.428;2022-12-18T05:11:15;55.90;;;26.30;;
1509;SDS011;746;48.688;9.428;2022-12-18T05:13:38;54.60;;;27.37;;
1509;SDS011;746;48.688;9.428;2022-12-18T05:16:00;56.13;;;28.27;;
1509;SDS011;746;48.688;9.428;2022-12-18T05:18:23;51.60;;;24.90;;
1509;SDS011;746;48.688;9.428;2022-12-18T05:20:44;52.73;;;26.93;;
1509;SDS011;746;48.688;9.428;2022-12-18T05:23:05;58.90;;;28.30;;
1509;SDS011;746;48.688;9.428;2022-12-18T05:25:27;56.83;;;27.67;;
1509;SDS011;746;48.688;9.428;2022-12-18T05:27:48;57.27;;;27.07;;
1509;SDS011;746;48.688;9.428;2022-12-18T05:30:12;52.10;;;26.87;;
1509;SDS011;746;48.688;9.428;2022-12-18T05:32:33;52.00;;;26.87;;
1509;SDS011;746;48.688;9.428;2022-12-18T05:34:54;55.73;;;28.00;;
1509;SDS011;746;48.688;9.428;2022-12-18T05:37:16;55.57;;;27.50;;
1509;SDS011;746;48.688;9.428;2022-12-18T05:39:38;54.43;;;27.40;;
1509;SDS011;746;48.688;9.428;2022-12-18T05:42:00;53.17;;;26.53;;
1509;SDS011;746;48.688;9.428;2022-12-18T05:44:21;53.17;;;25.53;;
1509;SDS011;746;48.688;9.428;2022-12-18T05:46:44;50.50;;;25.03;;
1509;SDS011;746;48.688;9.428;2022-12-18T05:49:05;49.20;;;25.37;;
1509;SDS011;746;48.688;9.428;2022-12-18T05:51:27;53.70;;;26.27;;
1509;SDS011;746;48.688;9.428;2022-12-18T05:53:48;55.67;;;29.20;;
1509;SDS011;746;48.688;9.428;2022-12-18T05:56:10;58.03;;;26.53;;
1509;SDS011;746;48.688;9.428;2022-12-18T05:58:31;54.97;;;26.17;;
1509;SDS011;746;48.688;9.428;2022-12-18T06:00:53;56.07;;;26.93;;
1509;SDS011;746;48.688;9.428;2022-12-18T06:03:16;53.47;;;26.00;;
1509;SDS011;746;48.688;9.428;2022-12-18T06:05:37;53.27;;;25.60;;
1509;SDS011;746;48.688;9.428;2022-12-18T06:07:59;56.60;;;25.87;;
1509;SDS011;746;48.688;9.428;2022-12-18T06:10:20;53.00;;;26.27;;
1509;SDS011;746;48.688;9.428;2022-12-18T06:12:41;53.90;;;24.57;;
1509;SDS011;746;48.688;9.428;2022-12-18T06:15:03;53.10;;;24.33;;
1509;SDS011;746;48.688;9.428;2022-12-18T06:17:27;48.07;;;24.70;;
1509;SDS011;746;48.688;9.428;2022-12-18T06:19:50;60.13;;;27.27;;
1509;SDS011;746;48.688;9.428;2022-12-18T06:22:11;55.10;;;26.27;;
1509;SDS011;746;48.688;9.428;2022-12-18T06:24:32;54.87;;;26.00;;
1509;SDS011;746;48.688;9.428;2022-12-18T06:26:54;58.87;;;26.37;;
1509;SDS011;746;48.688;9.428;2022-12-18T06:29:15;53.30;;;25.57;;
1509;SDS011;746;48.688;9.428;2022-12-18T06:31:36;51.73;;;25.73;;
1509;SDS011;746;48.688;9.428;2022-12-18T06:33:57;49.90;;;26.07;;
1509;SDS011;746;48.688;9.428;2022-12-18T06:36:21;58.57;;;25.90;;
1509;SDS011;746;48.688;9.428;2022-12-18T06:38:43;56.37;;;27.10;;
1509;SDS011;746;48.688;9.428;2022-12-18T06:41:06;55.47;;;26.30;;
1509;SDS011;746;48.688;9.428;2022-12-18T06:43:27;58.30;;;27.37;;
1509;SDS011;746;48.688;9.428;2022-12-18T06:45:48;60.70;;;28.10;;
1509;SDS011;746;48.688;9.428;2022-12-18T06:48:12;58.57;;;27.07;;
1509;SDS011;746;48.688;9.428;2022-12-18T06:50:33;57.67;;;26.90;;
1509;SDS011;746;48.688;9.428;2022-12-18T06:52:56;59.90;;;27.17;;
1509;SDS011;746;48.688;9.428;2022-12-18T06:55:18;56.83;;;27.27;;
1509;SDS011;746;48.688;9.428;2022-12-18T06:57:40;50.43;;;26.23;;
1509;SDS011;746;48.688;9.428;2022-12-18T07:00:01;53.73;;;26.33;;
1509;SDS011;746;48.688;9.428;2022-12-18T07:02:22;57.23;;;26.33;;
1509;SDS011;746;48.688;9.428;2022-12-18T07:04:44;56.30;;;26.33;;
1509;SDS011;746;48.688;9.428;2022-12-18T07:07:05;55.67;;;25.83;;
1509;SDS011;746;48.688;9.428;2022-12-18T07:09:28;50.03;;;26.17;;
1509;SDS011;746;48.688;9.428;2022-12-18T07:11:49;56.33;;;27.20;;
1509;SDS011;746;48.688;9.428;2022-12-18T07:14:10;58.07;;;27.93;;
1509;SDS011;746;48.688;9.428;2022-12-18T07:16:31;57.20;;;26.93;;
1509;SDS011;746;48.688;9.428;2022-12-18T07:18:54;56.10;;;27.17;;
1509;SDS011;746;48.688;9.428;2022-12-18T07:21:17;57.73;;;26.83;;
1509;SDS011;746;48.688;9.428;2022-12-18T07:23:39;51.30;;;24.93;;
1509;SDS011;746;48.688;9.428;2022-12-18T07:26:03;57.47;;;25.77;;
1509;SDS011;746;48.688;9.428;2022-12-18T07:28:24;53.40;;;27.40;;
1509;SDS011;746;48.688;9.428;2022-12-18T07:30:46;54.60;;;25.77;;
1509;SDS011;746;48.688;9.428;2022-12-18T07:33:07;60.60;;;27.97;;
1509;SDS011;746;48.688;9.428;2022-12-18T07:35:29;55.10;;;26.57;;
1509;SDS011;746;48.688;9.428;2022-12-18T07:37:50;50.53;;;25.97;;
1509;SDS011;746;48.688;9.428;2022-12-18T07:40:11;52.13;;;25.43;;
1509;SDS011;746;48.688;9.428;2022-12-18T07:42:34;55.87;;;26.37;;
1509;SDS011;746;48.688;9.428;2022-12-18T07:44:57;56.00;;;27.00;;
1509;SDS011;746;48.688;9.428;2022-12-18T07:47:18;55.87;;;26.80;;
1509;SDS011;746;48.688;9.428;2022-12-18T07:49:39;55.83;;;27.70;;
1509;SDS011;746;48.688;9.428;2022-12-18T07:52:01;60.77;;;28.90;;
1509;SDS011;746;48.688;9.428;2022-12-18T07:54:22;56.87;;;27.17;;
1509;SDS011;746;48.688;9.428;2022-12-18T07:56:44;57.20;;;27.43;;
1509;SDS011;746;48.688;9.428;2022-12-18T07:59:06;56.67;;;28.47;;
1509;SDS011;746;48.688;9.428;2022-12-18T08:01:28;59.40;;;28.60;;
1509;SDS011;746;48.688;9.428;2022-12-18T08:03:49;55.77;;;28.10;;
1509;SDS011;746;48.688;9.428;2022-12-18T08:06:11;55.67;;;27.90;;
1509;SDS011;746;48.688;9.428;2022-12-18T08:08:33;57.57;;;28.27;;
1509;SDS011;746;48.688;9.428;2022-12-18T08:10:55;55.93;;;28.90;;
1509;SDS011;746;48.688;9.428;2022-12-18T08:13:16;54.00;;;28.23;;
1509;SDS011;746;48.688;9.428;2022-12-18T08:15:38;52.33;;;27.97;;
1509;SDS011;746;48.688;9.428;2022-12-18T08:17:59;50.70;;;27.23;;
1509;SDS011;746;48.688;9.428;2022-12-18T08:20:21;46.87;;;26.57;;
1509;SDS011;746;48.688;9.428;2022-12-18T08:22:42;53.87;;;27.53;;
1509;SDS011;746;48.688;9.428;2022-12-18T08:25:04;54.43;;;26.97;;
1509;SDS011;746;48.688;9.428;2022-12-18T08:27:26;53.17;;;28.20;;
1509;SDS011;746;48.688;9.428;2022-12-18T08:29:48;51.87;;;26.70;;
1509;SDS011;746;48.688;9.428;2022-12-18T08:32:11;49.80;;;27.10;;
1509;SDS011;746;48.688;9.428;2022-12-18T08:34:33;51.83;;;27.87;;
1509;SDS011;746;48.688;9.428;2022-12-18T08:36:54;49.93;;;27.63;;
1509;SDS011;746;48.688;9.428;2022-12-18T08:39:15;53.47;;;27.53;;
1509;SDS011;746;48.688;9.428;2022-12-18T08:41:37;52.07;;;27.70;;
1509;SDS011;746;48.688;9.428;2022-12-18T08:43:58;48.13;;;27.50;;
1509;SDS011;746;48.688;9.428;2022-12-18T08:46:38;50.07;;;27.63;;
1509;SDS011;746;48.688;9.428;2022-12-18T08:49:01;53.27;;;27.57;;
1509;SDS011;746;48.688;9.428;2022-12-18T08:51:22;50.30;;;28.03;;
1509;SDS011;746;48.688;9.428;2022-12-18T08:53:44;51.50;;;28.10;;
1509;SDS011;746;48.688;9.428;2022-12-18T08:56:05;56.80;;;29.13;;
1509;SDS011;746;48.688;9.428;2022-12-18T08:58:26;56.17;;;29.80;;
1509;SDS011;746;48.688;9.428;2022-12-18T09:00:48;49.73;;;28.37;;
1509;SDS011;746;48.688;9.428;2022-12-18T09:03:10;49.73;;;28.37;;
1509;SDS011;746;48.688;9.428;2022-12-18T09:05:33;51.80;;;29.43;;
1509;SDS011;746;48.688;9.428;2022-12-18T09:07:54;51.93;;;29.20;;
1509;SDS011;746;48.688;9.428;2022-12-18T09:10:16;48.87;;;28.87;;
1509;SDS011;746;48.688;9.428;2022-12-18T09:12:37;49.00;;;27.53;;
1509;SDS011;746;48.688;9.428;2022-12-18T09:14:59;47.80;;;27.97;;
1509;SDS011;746;48.688;9.428;2022-12-18T09:17:20;47.00;;;27.43;;
1509;SDS011;746;48.688;9.428;2022-12-18T09:19:41;46.50;;;27.47;;
1509;SDS011;746;48.688;9.428;2022-12-18T09:22:04;48.50;;;28.70;;
1509;SDS011;746;48.688;9.428;2022-12-18T09:24:25;50.60;;;29.47;;
1509;SDS011;746;48.688;9.428;2022-12-18T09:26:47;49.70;;;28.33;;
1509;SDS011;746;48.688;9.428;2022-12-18T09:29:13;50.37;;;29.37;;
1509;SDS011;746;48.688;9.428;2022-12-18T09:31:37;51.23;;;29.07;;
1509;SDS011;746;48.688;9.428;2022-12-18T09:33:59;43.93;;;26.37;;
1509;SDS011;746;48.688;9.428;2022-12-18T09:36:20;43.53;;;26.90;;
1509;SDS011;746;48.688;9.428;2022-12-18T09:38:43;43.67;;;27.50;;
1509;SDS011;746;48.688;9.428;2022-12-18T09:41:04;52.57;;;31.37;;
1509;SDS011;746;48.688;9.428;2022-12-18T09:43:28;50.43;;;30.90;;
1509;SDS011;746;48.688;9.428;2022-12-18T09:45:51;54.27;;;31.63;;
1509;SDS011;746;48.688;9.428;2022-12-18T09:48:14;49.80;;;30.23;;
1509;SDS011;746;48.688;9.428;2022-12-18T09:50:37;52.93;;;30.97;;
1509;SDS011;746;48.688;9.428;2022-12-18T09:53:04;58.80;;;34.50;;
1509;SDS011;746;48.688;9.428;2022-12-18T09:55:30;59.60;;;34.60;;
1509;SDS011;746;48.688;9.428;2022-12-18T09:57:57;58.33;;;34.37;;
1509;SDS011;746;48.688;9.428;2022-12-18T10:00:20;57.30;;;33.30;;
1509;SDS011;746;48.688;9.428;2022-12-18T10:02:42;54.97;;;33.23;;
1509;SDS011;746;48.688;9.428;2022-12-18T10:05:07;56.73;;;33.53;;
1509;SDS011;746;48.688;9.428;2022-12-18T10:07:32;55.63;;;33.77;;
1509;SDS011;746;48.688;9.428;2022-12-18T10:09:57;57.90;;;35.13;;
1509;SDS011;746;48.688;9.428;2022-12-18T10:12:23;52.67;;;33.07;;
1509;SDS011;746;48.688;9.428;2022-12-18T10:14:50;56.07;;;34.43;;
1509;SDS011;746;48.688;9.428;2022-12-18T10:17:17;52.57;;;31.33;;
1509;SDS011;746;48.688;9.428;2022-12-18T10:19:41;52.63;;;32.40;;
1509;SDS011;746;48.688;9.428;2022-12-18T10:22:15;52.60;;;33.60;;
1509;SDS011;746;48.688;9.428;2022-12-18T10:24:40;55.47;;;35.50;;
1509;SDS011;746;48.688;9.428;2022-12-18T10:27:08;60.13;;;38.13;;
1509;SDS011;746;48.688;9.428;2022-12-18T10:29:33;57.00;;;35.73;;
1509;SDS011;746;48.688;9.428;2022-12-18T10:31:54;53.23;;;33.53;;
1509;SDS011;746;48.688;9.428;2022-12-18T10:34:16;54.67;;;34.40;;
1509;SDS011;746;48.688;9.428;2022-12-18T10:36:37;53.80;;;34.00;;
1509;SDS011;746;48.688;9.428;2022-12-18T10:39:03;52.67;;;33.37;;
1509;SDS011;746;48.688;9.428;2022-12-18T10:41:34;56.57;;;35.57;;
1509;SDS011;746;48.688;9.428;2022-12-18T10:44:11;56.43;;;34.30;;
1509;SDS011;746;48.688;9.428;2022-12-18T10:46:34;60.40;;;37.07;;
1509;SDS011;746;48.688;9.428;2022-12-18T10:48:56;53.93;;;35.70;;
1509;SDS011;746;48.688;9.428;2022-12-18T10:51:22;57.07;;;36.43;;
1509;SDS011;746;48.688;9.428;2022-12-18T10:53:44;58.90;;;36.73;;
1509;SDS011;746;48.688;9.428;2022-12-18T10:56:12;58.00;;;38.73;;
1509;SDS011;746;48.688;9.428;2022-12-18T10:58:33;52.50;;;35.87;;
1509;SDS011;746;48.688;9.428;2022-12-18T11:01:06;59.27;;;39.57;;
1509;SDS011;746;48.688;9.428;2022-12-18T11:03:30;61.73;;;39.07;;
1509;SDS011;746;48.688;9.428;2022-12-18T11:05:52;62.67;;;41.67;;
1509;SDS011;746;48.688;9.428;2022-12-18T11:08:22;67.47;;;43.50;;
1509;SDS011;746;48.688;9.428;2022-12-18T11:10:44;70.37;;;44.90;;
1509;SDS011;746;48.688;9.428;2022-12-18T11:13:11;69.27;;;43.87;;
1509;SDS011;746;48.688;9.428;2022-12-18T11:15:33;62.60;;;42.00;;
1509;SDS011;746;48.688;9.428;2022-12-18T11:17:54;72.07;;;41.60;;
1509;SDS011;746;48.688;9.428;2022-12-18T11:20:21;62.17;;;41.17;;
1509;SDS011;746;48.688;9.428;2022-12-18T11:22:44;69.10;;;42.07;;
1509;SDS011;746;48.688;9.428;2022-12-18T11:25:17;61.60;;;40.30;;
1509;SDS011;746;48.688;9.428;2022-12-18T11:27:54;58.83;;;39.87;;
1509;SDS011;746;48.688;9.428;2022-12-18T11:30:20;61.63;;;40.63;;
1509;SDS011;746;48.688;9.428;2022-12-18T11:32:42;61.63;;;40.33;;
1509;SDS011;746;48.688;9.428;2022-12-18T11:35:10;61.83;;;41.40;;
1509;SDS011;746;48.688;9.428;2022-12-18T11:37:34;59.80;;;40.13;;
1509;SDS011;746;48.688;9.428;2022-12-18T11:39:57;56.73;;;39.93;;
1509;SDS011;746;48.688;9.428;2022-12-18T11:42:20;60.67;;;40.43;;
1509;SDS011;746;48.688;9.428;2022-12-18T11:44:46;61.77;;;40.57;;
1509;SDS011;746;48.688;9.428;2022-12-18T11:47:09;61.87;;;41.73;;
1509;SDS011;746;48.688;9.428;2022-12-18T11:49:35;58.77;;;39.50;;
1509;SDS011;746;48.688;9.428;2022-12-18T11:51:58;57.97;;;41.27;;
1509;SDS011;746;48.688;9.428;2022-12-18T11:54:22;59.27;;;41.13;;
1509;SDS011;746;48.688;9.428;2022-12-18T11:56:45;58.77;;;39.63;;
1509;SDS011;746;48.688;9.428;2022-12-18T11:59:08;58.27;;;41.10;;
1509;SDS011;746;48.688;9.428;2022-12-18T12:01:36;60.87;;;40.50;;
1509;SDS011;746;48.688;9.428;2022-12-18T12:06:45;57.37;;;39.00;;
1509;SDS011;746;48.688;9.428;2022-12-18T12:09:11;55.93;;;39.07;;
1509;SDS011;746;48.688;9.428;2022-12-18T12:11:39;59.30;;;39.93;;
1509;SDS011;746;48.688;9.428;2022-12-18T12:14:12;60.63;;;40.53;;
1509;SDS011;746;48.688;9.428;2022-12-18T12:16:37;57.83;;;41.43;;
1509;SDS011;746;48.688;9.428;2022-12-18T12:19:02;64.43;;;42.33;;
1509;SDS011;746;48.688;9.428;2022-12-18T12:21:26;66.87;;;43.50;;
1509;SDS011;746;48.688;9.428;2022-12-18T12:23:50;67.70;;;41.23;;
1509;SDS011;746;48.688;9.428;2022-12-18T12:26:14;57.30;;;40.67;;
1509;SDS011;746;48.688;9.428;2022-12-18T12:28:52;61.63;;;41.17;;
1509;SDS011;746;48.688;9.428;2022-12-18T12:31:17;59.77;;;41.93;;
1509;SDS011;746;48.688;9.428;2022-12-18T12:33:43;62.00;;;42.40;;
1509;SDS011;746;48.688;9.428;2022-12-18T12:36:12;58.90;;;40.30;;
1509;SDS011;746;48.688;9.428;2022-12-18T12:38:36;56.50;;;40.27;;
1509;SDS011;746;48.688;9.428;2022-12-18T12:40:58;59.27;;;41.03;;
1509;SDS011;746;48.688;9.428;2022-12-18T12:43:24;61.67;;;42.90;;
1509;SDS011;746;48.688;9.428;2022-12-18T12:45:48;67.73;;;45.70;;
1509;SDS011;746;48.688;9.428;2022-12-18T12:48:13;60.20;;;41.47;;
1509;SDS011;746;48.688;9.428;2022-12-18T12:50:35;61.80;;;43.97;;
1509;SDS011;746;48.688;9.428;2022-12-18T12:52:58;64.40;;;45.13;;
1509;SDS011;746;48.688;9.428;2022-12-18T12:55:21;63.47;;;44.57;;
1509;SDS011;746;48.688;9.428;2022-12-18T12:57:45;63.10;;;42.97;;
1509;SDS011;746;48.688;9.428;2022-12-18T13:00:08;63.33;;;44.43;;
1509;SDS011;746;48.688;9.428;2022-12-18T13:02:33;59.53;;;41.80;;
1509;SDS011;746;48.688;9.428;2022-12-18T13:04:58;59.57;;;41.87;;
1509;SDS011;746;48.688;9.428;2022-12-18T13:07:24;59.27;;;42.03;;
1509;SDS011;746;48.688;9.428;2022-12-18T13:12:30;63.00;;;42.73;;
1509;SDS011;746;48.688;9.428;2022-12-18T13:15:13;62.17;;;44.93;;
1509;SDS011;746;48.688;9.428;2022-12-18T13:17:41;62.20;;;43.80;;
1509;SDS011;746;48.688;9.428;2022-12-18T13:20:07;61.63;;;42.57;;
1509;SDS011;746;48.688;9.428;2022-12-18T13:22:30;59.57;;;40.37;;
1509;SDS011;746;48.688;9.428;2022-12-18T13:24:52;57.57;;;41.13;;
1509;SDS011;746;48.688;9.428;2022-12-18T13:29:50;78.47;;;52.17;;
1509;SDS011;746;48.688;9.428;2022-12-18T13:32:21;63.73;;;42.00;;
1509;SDS011;746;48.688;9.428;2022-12-18T13:34:44;56.80;;;38.33;;
1509;SDS011;746;48.688;9.428;2022-12-18T13:40:01;52.00;;;36.40;;
1509;SDS011;746;48.688;9.428;2022-12-18T13:42:37;49.60;;;34.60;;
1509;SDS011;746;48.688;9.428;2022-12-18T13:47:55;43.50;;;29.93;;
1509;SDS011;746;48.688;9.428;2022-12-18T13:50:20;41.53;;;29.00;;
1509;SDS011;746;48.688;9.428;2022-12-18T13:52:43;41.23;;;26.97;;
1509;SDS011;746;48.688;9.428;2022-12-18T13:55:05;43.47;;;30.77;;
1509;SDS011;746;48.688;9.428;2022-12-18T13:57:28;52.70;;;35.67;;
1509;SDS011;746;48.688;9.428;2022-12-18T13:59:51;55.17;;;38.80;;
1509;SDS011;746;48.688;9.428;2022-12-18T14:02:13;56.80;;;38.13;;
1509;SDS011;746;48.688;9.428;2022-12-18T14:04:36;58.50;;;38.83;;
1509;SDS011;746;48.688;9.428;2022-12-18T14:07:01;59.73;;;38.20;;
1509;SDS011;746;48.688;9.428;2022-12-18T14:09:25;62.50;;;40.00;;
1509;SDS011;746;48.688;9.428;2022-12-18T14:11:48;53.57;;;36.90;;
1509;SDS011;746;48.688;9.428;2022-12-18T14:14:12;54.90;;;37.50;;
1509;SDS011;746;48.688;9.428;2022-12-18T14:16:35;58.77;;;38.17;;
1509;SDS011;746;48.688;9.428;2022-12-18T14:18:57;55.77;;;37.77;;
1509;SDS011;746;48.688;9.428;2022-12-18T14:21:29;56.73;;;39.23;;
1509;SDS011;746;48.688;9.428;2022-12-18T14:24:05;59.80;;;39.00;;
1509;SDS011;746;48.688;9.428;2022-12-18T14:26:26;55.93;;;38.30;;
1509;SDS011;746;48.688;9.428;2022-12-18T14:28:49;56.00;;;38.87;;
1509;SDS011;746;48.688;9.428;2022-12-18T14:31:16;60.60;;;40.33;;
1509;SDS011;746;48.688;9.428;2022-12-18T14:33:38;58.03;;;38.60;;
1509;SDS011;746;48.688;9.428;2022-12-18T14:36:01;59.57;;;37.77;;
1509;SDS011;746;48.688;9.428;2022-12-18T14:38:23;53.33;;;35.40;;
1509;SDS011;746;48.688;9.428;2022-12-18T14:40:46;54.13;;;37.43;;
1509;SDS011;746;48.688;9.428;2022-12-18T14:43:08;62.63;;;39.43;;
1509;SDS011;746;48.688;9.428;2022-12-18T14:45:32;59.63;;;38.60;;
1509;SDS011;746;48.688;9.428;2022-12-18T14:48:00;60.90;;;40.10;;
1509;SDS011;746;48.688;9.428;2022-12-18T14:50:21;59.27;;;38.27;;